sensor_id;sensor_type;location;lat;lon;timestamp;temperature;humidity
5588;DHT22;2816;49.778;9.986;2023-06-14T00:01:08;17.70;82.00
5588;DHT22;2816;49.778;9.986;2023-06-14T00:03:35;17.60;81.60
5588;DHT22;2816;49.778;9.986;2023-06-14T00:06:02;17.60;82.00
5588;DHT22;2816;49.778;9.986;2023-06-14T00:08:28;17.50;82.20
5588;DHT22;2816;49.778;9.986;2023-06-14T00:10:55;17.60;82.20
5588;DHT22;2816;49.778;9.986;2023-06-14T00:13:24;17.50;82.50
5588;DHT22;2816;49.778;9.986;2023-06-14T00:15:51;17.50;82.20
5588;DHT22;2816;49.778;9.986;2023-06-14T00:18:20;17.60;82.30
5588;DHT22;2816;49.778;9.986;2023-06-14T00:20:49;17.50;82.20
5588;DHT22;2816;49.778;9.986;2023-06-14T00:23:16;17.50;82.20
5588;DHT22;2816;49.778;9.986;2023-06-14T00:25:43;17.50;82.00
5588;DHT22;2816;49.778;9.986;2023-06-14T00:28:10;17.50;81.90
5588;DHT22;2816;49.778;9.986;2023-06-14T00:30:39;17.50;81.80
5588;DHT22;2816;49.778;9.986;2023-06-14T00:33:06;17.50;81.70
5588;DHT22;2816;49.778;9.986;2023-06-14T00:35:33;17.30;81.80
5588;DHT22;2816;49.778;9.986;2023-06-14T00:38:00;17.40;81.90
5588;DHT22;2816;49.778;9.986;2023-06-14T00:40:27;17.20;82.20
5588;DHT22;2816;49.778;9.986;2023-06-14T00:42:54;17.20;82.20
5588;DHT22;2816;49.778;9.986;2023-06-14T00:45:21;17.20;82.30
5588;DHT22;2816;49.778;9.986;2023-06-14T00:47:49;17.20;82.40
5588;DHT22;2816;49.778;9.986;2023-06-14T00:50:20;17.20;82.80
5588;DHT22;2816;49.778;9.986;2023-06-14T00:52:47;17.10;82.60
5588;DHT22;2816;49.778;9.986;2023-06-14T00:55:14;17.10;83.10
5588;DHT22;2816;49.778;9.986;2023-06-14T00:57:41;17.10;83.20
5588;DHT22;2816;49.778;9.986;2023-06-14T01:00:09;17.10;83.30
5588;DHT22;2816;49.778;9.986;2023-06-14T01:02:37;17.00;83.10
5588;DHT22;2816;49.778;9.986;2023-06-14T01:05:06;17.00;83.60
5588;DHT22;2816;49.778;9.986;2023-06-14T01:07:46;16.90;83.70
5588;DHT22;2816;49.778;9.986;2023-06-14T01:10:37;16.90;84.20
5588;DHT22;2816;49.778;9.986;2023-06-14T01:13:12;17.00;84.10
5588;DHT22;2816;49.778;9.986;2023-06-14T01:15:42;17.00;84.30
5588;DHT22;2816;49.778;9.986;2023-06-14T01:18:10;17.00;84.20
5588;DHT22;2816;49.778;9.986;2023-06-14T01:20:46;16.90;84.10
5588;DHT22;2816;49.778;9.986;2023-06-14T01:23:25;16.90;84.20
5588;DHT22;2816;49.778;9.986;2023-06-14T01:25:58;17.00;84.30
5588;DHT22;2816;49.778;9.986;2023-06-14T01:28:28;17.00;84.50
5588;DHT22;2816;49.778;9.986;2023-06-14T01:31:00;17.00;84.70
5588;DHT22;2816;49.778;9.986;2023-06-14T01:33:31;16.90;84.90
5588;DHT22;2816;49.778;9.986;2023-06-14T01:36:00;16.80;85.40
5588;DHT22;2816;49.778;9.986;2023-06-14T01:38:30;16.70;85.90
5588;DHT22;2816;49.778;9.986;2023-06-14T01:40:58;16.60;86.40
5588;DHT22;2816;49.778;9.986;2023-06-14T01:43:30;16.50;86.70
5588;DHT22;2816;49.778;9.986;2023-06-14T01:45:57;16.60;86.80
5588;DHT22;2816;49.778;9.986;2023-06-14T01:48:25;16.60;87.00
5588;DHT22;2816;49.778;9.986;2023-06-14T01:50:52;16.50;87.10
5588;DHT22;2816;49.778;9.986;2023-06-14T01:53:19;16.50;87.50
5588;DHT22;2816;49.778;9.986;2023-06-14T01:55:49;16.50;87.60
5588;DHT22;2816;49.778;9.986;2023-06-14T01:58:16;16.50;87.90
5588;DHT22;2816;49.778;9.986;2023-06-14T02:00:43;16.40;88.00
5588;DHT22;2816;49.778;9.986;2023-06-14T02:03:10;16.40;88.30
5588;DHT22;2816;49.778;9.986;2023-06-14T02:05:38;16.30;88.60
5588;DHT22;2816;49.778;9.986;2023-06-14T02:08:06;16.30;88.90
5588;DHT22;2816;49.778;9.986;2023-06-14T02:10:33;16.20;89.50
5588;DHT22;2816;49.778;9.986;2023-06-14T02:13:01;16.20;89.70
5588;DHT22;2816;49.778;9.986;2023-06-14T02:15:28;16.20;89.80
5588;DHT22;2816;49.778;9.986;2023-06-14T02:18:00;16.20;89.90
5588;DHT22;2816;49.778;9.986;2023-06-14T02:20:27;16.00;90.10
5588;DHT22;2816;49.778;9.986;2023-06-14T02:22:55;16.00;90.10
5588;DHT22;2816;49.778;9.986;2023-06-14T02:25:22;16.00;90.30
5588;DHT22;2816;49.778;9.986;2023-06-14T02:27:48;16.10;90.30
5588;DHT22;2816;49.778;9.986;2023-06-14T02:30:17;16.10;90.20
5588;DHT22;2816;49.778;9.986;2023-06-14T02:32:45;16.20;90.20
5588;DHT22;2816;49.778;9.986;2023-06-14T02:35:14;16.10;90.30
5588;DHT22;2816;49.778;9.986;2023-06-14T02:37:41;16.10;90.30
5588;DHT22;2816;49.778;9.986;2023-06-14T02:40:09;16.20;90.30
5588;DHT22;2816;49.778;9.986;2023-06-14T02:42:36;16.20;90.20
5588;DHT22;2816;49.778;9.986;2023-06-14T02:45:03;16.10;90.30
5588;DHT22;2816;49.778;9.986;2023-06-14T02:47:31;16.10;90.40
5588;DHT22;2816;49.778;9.986;2023-06-14T02:49:58;16.10;90.30
5588;DHT22;2816;49.778;9.986;2023-06-14T02:52:25;16.10;90.50
5588;DHT22;2816;49.778;9.986;2023-06-14T02:54:52;15.90;90.70
5588;DHT22;2816;49.778;9.986;2023-06-14T02:57:19;16.00;90.60
5588;DHT22;2816;49.778;9.986;2023-06-14T02:59:46;15.90;90.90
5588;DHT22;2816;49.778;9.986;2023-06-14T03:02:13;15.90;90.80
5588;DHT22;2816;49.778;9.986;2023-06-14T03:04:41;15.90;90.90
5588;DHT22;2816;49.778;9.986;2023-06-14T03:07:10;15.90;90.90
5588;DHT22;2816;49.778;9.986;2023-06-14T03:09:38;15.60;91.20
5588;DHT22;2816;49.778;9.986;2023-06-14T03:12:06;15.70;91.50
5588;DHT22;2816;49.778;9.986;2023-06-14T03:14:35;15.50;91.60
5588;DHT22;2816;49.778;9.986;2023-06-14T03:17:02;15.50;91.90
5588;DHT22;2816;49.778;9.986;2023-06-14T03:19:30;15.50;91.90
5588;DHT22;2816;49.778;9.986;2023-06-14T03:21:58;15.40;92.20
5588;DHT22;2816;49.778;9.986;2023-06-14T03:24:25;15.50;92.30
5588;DHT22;2816;49.778;9.986;2023-06-14T03:26:54;15.50;92.10
5588;DHT22;2816;49.778;9.986;2023-06-14T03:29:22;15.60;92.10
5588;DHT22;2816;49.778;9.986;2023-06-14T03:32:07;15.60;92.00
5588;DHT22;2816;49.778;9.986;2023-06-14T03:34:34;15.70;92.00
5588;DHT22;2816;49.778;9.986;2023-06-14T03:37:02;15.70;92.00
5588;DHT22;2816;49.778;9.986;2023-06-14T03:39:29;15.70;92.00
5588;DHT22;2816;49.778;9.986;2023-06-14T03:41:56;15.70;92.00
5588;DHT22;2816;49.778;9.986;2023-06-14T03:44:23;15.60;92.10
5588;DHT22;2816;49.778;9.986;2023-06-14T03:46:53;15.60;92.10
5588;DHT22;2816;49.778;9.986;2023-06-14T03:49:20;15.50;92.50
5588;DHT22;2816;49.778;9.986;2023-06-14T03:51:47;15.40;92.50
5588;DHT22;2816;49.778;9.986;2023-06-14T03:54:18;15.50;92.80
5588;DHT22;2816;49.778;9.986;2023-06-14T03:56:45;15.50;92.90
5588;DHT22;2816;49.778;9.986;2023-06-14T03:59:12;15.40;93.10
5588;DHT22;2816;49.778;9.986;2023-06-14T04:01:39;15.40;93.10
5588;DHT22;2816;49.778;9.986;2023-06-14T04:04:12;15.40;93.10
5588;DHT22;2816;49.778;9.986;2023-06-14T04:06:39;15.50;93.10
5588;DHT22;2816;49.778;9.986;2023-06-14T04:09:07;15.40;93.20
5588;DHT22;2816;49.778;9.986;2023-06-14T04:11:36;15.40;93.10
5588;DHT22;2816;49.778;9.986;2023-06-14T04:14:03;15.30;93.30
5588;DHT22;2816;49.778;9.986;2023-06-14T04:16:30;15.40;93.50
5588;DHT22;2816;49.778;9.986;2023-06-14T04:18:57;15.40;93.40
5588;DHT22;2816;49.778;9.986;2023-06-14T04:21:24;15.30;93.40
5588;DHT22;2816;49.778;9.986;2023-06-14T04:23:51;15.40;93.40
5588;DHT22;2816;49.778;9.986;2023-06-14T04:26:21;15.40;93.60
5588;DHT22;2816;49.778;9.986;2023-06-14T04:28:50;15.40;93.50
5588;DHT22;2816;49.778;9.986;2023-06-14T04:31:17;15.40;93.70
5588;DHT22;2816;49.778;9.986;2023-06-14T04:33:44;15.40;93.80
5588;DHT22;2816;49.778;9.986;2023-06-14T04:36:12;15.30;94.10
5588;DHT22;2816;49.778;9.986;2023-06-14T04:38:42;15.30;94.10
5588;DHT22;2816;49.778;9.986;2023-06-14T04:41:10;15.30;94.20
5588;DHT22;2816;49.778;9.986;2023-06-14T04:43:37;15.40;94.00
5588;DHT22;2816;49.778;9.986;2023-06-14T04:46:06;15.30;94.10
5588;DHT22;2816;49.778;9.986;2023-06-14T04:48:36;15.30;94.50
5588;DHT22;2816;49.778;9.986;2023-06-14T04:51:05;15.30;94.60
5588;DHT22;2816;49.778;9.986;2023-06-14T04:53:32;15.10;95.00
5588;DHT22;2816;49.778;9.986;2023-06-14T04:55:59;15.10;95.00
5588;DHT22;2816;49.778;9.986;2023-06-14T04:58:27;15.20;95.10
5588;DHT22;2816;49.778;9.986;2023-06-14T05:00:54;15.40;94.90
5588;DHT22;2816;49.778;9.986;2023-06-14T05:03:22;15.50;94.90
5588;DHT22;2816;49.778;9.986;2023-06-14T05:05:50;15.40;95.00
5588;DHT22;2816;49.778;9.986;2023-06-14T05:08:18;15.30;95.40
5588;DHT22;2816;49.778;9.986;2023-06-14T05:10:49;15.40;95.10
5588;DHT22;2816;49.778;9.986;2023-06-14T05:13:16;15.50;95.20
5588;DHT22;2816;49.778;9.986;2023-06-14T05:15:43;15.70;95.20
5588;DHT22;2816;49.778;9.986;2023-06-14T05:18:10;15.70;94.60
5588;DHT22;2816;49.778;9.986;2023-06-14T05:20:40;15.50;95.30
5588;DHT22;2816;49.778;9.986;2023-06-14T05:23:09;15.60;95.60
5588;DHT22;2816;49.778;9.986;2023-06-14T05:25:41;15.60;95.50
5588;DHT22;2816;49.778;9.986;2023-06-14T05:28:08;15.60;95.60
5588;DHT22;2816;49.778;9.986;2023-06-14T05:30:37;15.70;95.40
5588;DHT22;2816;49.778;9.986;2023-06-14T05:33:04;15.80;95.50
5588;DHT22;2816;49.778;9.986;2023-06-14T05:35:31;15.90;95.40
5588;DHT22;2816;49.778;9.986;2023-06-14T05:37:59;16.00;95.30
5588;DHT22;2816;49.778;9.986;2023-06-14T05:40:26;15.80;95.10
5588;DHT22;2816;49.778;9.986;2023-06-14T05:42:53;15.90;95.40
5588;DHT22;2816;49.778;9.986;2023-06-14T05:45:20;16.10;95.10
5588;DHT22;2816;49.778;9.986;2023-06-14T05:47:47;16.20;95.10
5588;DHT22;2816;49.778;9.986;2023-06-14T05:50:14;16.10;94.80
5588;DHT22;2816;49.778;9.986;2023-06-14T05:52:41;16.10;95.00
5588;DHT22;2816;49.778;9.986;2023-06-14T05:55:11;16.10;95.10
5588;DHT22;2816;49.778;9.986;2023-06-14T05:57:38;16.20;95.20
5588;DHT22;2816;49.778;9.986;2023-06-14T06:00:08;16.30;95.20
5588;DHT22;2816;49.778;9.986;2023-06-14T06:02:40;16.30;95.00
5588;DHT22;2816;49.778;9.986;2023-06-14T06:05:08;16.40;95.20
5588;DHT22;2816;49.778;9.986;2023-06-14T06:07:35;16.40;94.90
5588;DHT22;2816;49.778;9.986;2023-06-14T06:10:02;16.40;95.10
5588;DHT22;2816;49.778;9.986;2023-06-14T06:12:31;16.50;95.20
5588;DHT22;2816;49.778;9.986;2023-06-14T06:14:59;16.70;95.00
5588;DHT22;2816;49.778;9.986;2023-06-14T06:17:26;16.80;94.50
5588;DHT22;2816;49.778;9.986;2023-06-14T06:19:53;16.70;94.30
5588;DHT22;2816;49.778;9.986;2023-06-14T06:22:20;16.70;94.60
5588;DHT22;2816;49.778;9.986;2023-06-14T06:24:47;16.70;94.50
5588;DHT22;2816;49.778;9.986;2023-06-14T06:27:14;16.90;94.40
5588;DHT22;2816;49.778;9.986;2023-06-14T06:29:43;16.90;94.50
5588;DHT22;2816;49.778;9.986;2023-06-14T06:32:10;17.00;94.20
5588;DHT22;2816;49.778;9.986;2023-06-14T06:34:37;17.00;94.00
5588;DHT22;2816;49.778;9.986;2023-06-14T06:37:04;17.10;94.20
5588;DHT22;2816;49.778;9.986;2023-06-14T06:39:31;17.10;94.00
5588;DHT22;2816;49.778;9.986;2023-06-14T06:41:58;17.10;93.90
5588;DHT22;2816;49.778;9.986;2023-06-14T06:44:25;17.30;94.00
5588;DHT22;2816;49.778;9.986;2023-06-14T06:46:53;17.20;93.90
5588;DHT22;2816;49.778;9.986;2023-06-14T06:49:20;17.30;94.00
5588;DHT22;2816;49.778;9.986;2023-06-14T06:52:00;17.40;93.90
5588;DHT22;2816;49.778;9.986;2023-06-14T06:54:27;17.40;93.60
5588;DHT22;2816;49.778;9.986;2023-06-14T06:56:55;17.50;93.60
5588;DHT22;2816;49.778;9.986;2023-06-14T06:59:21;17.60;93.50
5588;DHT22;2816;49.778;9.986;2023-06-14T07:01:48;17.60;93.70
5588;DHT22;2816;49.778;9.986;2023-06-14T07:04:17;17.60;93.70
5588;DHT22;2816;49.778;9.986;2023-06-14T07:06:45;17.70;93.50
5588;DHT22;2816;49.778;9.986;2023-06-14T07:09:12;17.60;93.50
5588;DHT22;2816;49.778;9.986;2023-06-14T07:11:41;17.60;93.90
5588;DHT22;2816;49.778;9.986;2023-06-14T07:14:08;17.70;93.90
5588;DHT22;2816;49.778;9.986;2023-06-14T07:16:35;17.70;93.80
5588;DHT22;2816;49.778;9.986;2023-06-14T07:19:02;17.80;93.50
5588;DHT22;2816;49.778;9.986;2023-06-14T07:21:30;17.80;93.60
5588;DHT22;2816;49.778;9.986;2023-06-14T07:23:57;18.00;93.20
5588;DHT22;2816;49.778;9.986;2023-06-14T07:26:24;18.00;93.10
5588;DHT22;2816;49.778;9.986;2023-06-14T07:28:51;17.90;93.20
5588;DHT22;2816;49.778;9.986;2023-06-14T07:31:19;18.00;93.20
5588;DHT22;2816;49.778;9.986;2023-06-14T07:33:46;18.20;93.00
5588;DHT22;2816;49.778;9.986;2023-06-14T07:36:13;18.10;92.80
5588;DHT22;2816;49.778;9.986;2023-06-14T07:38:41;18.20;92.90
5588;DHT22;2816;49.778;9.986;2023-06-14T07:41:08;18.20;92.70
5588;DHT22;2816;49.778;9.986;2023-06-14T07:43:35;18.20;92.60
5588;DHT22;2816;49.778;9.986;2023-06-14T07:46:02;18.40;92.50
5588;DHT22;2816;49.778;9.986;2023-06-14T07:48:30;18.40;92.70
5588;DHT22;2816;49.778;9.986;2023-06-14T07:50:57;18.50;92.60
5588;DHT22;2816;49.778;9.986;2023-06-14T07:53:25;18.50;92.30
5588;DHT22;2816;49.778;9.986;2023-06-14T07:55:53;18.60;92.20
5588;DHT22;2816;49.778;9.986;2023-06-14T07:58:20;18.80;92.30
5588;DHT22;2816;49.778;9.986;2023-06-14T08:00:47;18.80;92.00
5588;DHT22;2816;49.778;9.986;2023-06-14T08:03:14;18.90;91.70
5588;DHT22;2816;49.778;9.986;2023-06-14T08:05:41;19.00;91.40
5588;DHT22;2816;49.778;9.986;2023-06-14T08:08:08;19.00;91.60
5588;DHT22;2816;49.778;9.986;2023-06-14T08:10:35;19.10;91.30
5588;DHT22;2816;49.778;9.986;2023-06-14T08:13:03;19.30;91.30
5588;DHT22;2816;49.778;9.986;2023-06-14T08:15:30;19.40;90.60
5588;DHT22;2816;49.778;9.986;2023-06-14T08:17:57;19.30;90.60
5588;DHT22;2816;49.778;9.986;2023-06-14T08:20:25;19.30;90.50
5588;DHT22;2816;49.778;9.986;2023-06-14T08:22:52;19.40;90.60
5588;DHT22;2816;49.778;9.986;2023-06-14T08:25:22;19.50;90.70
5588;DHT22;2816;49.778;9.986;2023-06-14T08:27:49;19.50;90.70
5588;DHT22;2816;49.778;9.986;2023-06-14T08:30:17;19.60;90.50
5588;DHT22;2816;49.778;9.986;2023-06-14T08:32:44;19.60;90.10
5588;DHT22;2816;49.778;9.986;2023-06-14T08:35:11;19.60;90.50
5588;DHT22;2816;49.778;9.986;2023-06-14T08:37:40;19.90;90.10
5588;DHT22;2816;49.778;9.986;2023-06-14T08:40:17;19.90;89.90
5588;DHT22;2816;49.778;9.986;2023-06-14T08:42:47;19.80;90.00
5588;DHT22;2816;49.778;9.986;2023-06-14T08:45:14;19.90;89.50
5588;DHT22;2816;49.778;9.986;2023-06-14T08:47:42;20.00;87.60
5588;DHT22;2816;49.778;9.986;2023-06-14T08:50:11;20.10;88.50
5588;DHT22;2816;49.778;9.986;2023-06-14T08:52:45;20.30;87.30
5588;DHT22;2816;49.778;9.986;2023-06-14T08:55:16;20.50;84.00
5588;DHT22;2816;49.778;9.986;2023-06-14T08:57:46;20.50;82.80
5588;DHT22;2816;49.778;9.986;2023-06-14T09:00:14;20.40;84.10
5588;DHT22;2816;49.778;9.986;2023-06-14T09:02:42;20.60;82.70
5588;DHT22;2816;49.778;9.986;2023-06-14T09:05:10;20.70;82.90
5588;DHT22;2816;49.778;9.986;2023-06-14T09:07:39;20.70;82.50
5588;DHT22;2816;49.778;9.986;2023-06-14T09:10:08;20.70;82.30
5588;DHT22;2816;49.778;9.986;2023-06-14T09:12:36;20.50;82.00
5588;DHT22;2816;49.778;9.986;2023-06-14T09:15:04;20.40;82.00
5588;DHT22;2816;49.778;9.986;2023-06-14T09:17:34;20.50;82.60
5588;DHT22;2816;49.778;9.986;2023-06-14T09:20:03;20.70;82.40
5588;DHT22;2816;49.778;9.986;2023-06-14T09:22:35;21.10;81.40
5588;DHT22;2816;49.778;9.986;2023-06-14T09:25:02;21.30;79.90
5588;DHT22;2816;49.778;9.986;2023-06-14T09:27:29;21.20;80.30
5588;DHT22;2816;49.778;9.986;2023-06-14T09:29:56;21.20;78.90
5588;DHT22;2816;49.778;9.986;2023-06-14T09:32:23;21.40;77.90
5588;DHT22;2816;49.778;9.986;2023-06-14T09:34:50;21.40;77.70
5588;DHT22;2816;49.778;9.986;2023-06-14T09:37:31;21.40;78.40
5588;DHT22;2816;49.778;9.986;2023-06-14T09:39:59;21.40;78.40
5588;DHT22;2816;49.778;9.986;2023-06-14T09:42:26;21.50;77.40
5588;DHT22;2816;49.778;9.986;2023-06-14T09:44:55;21.70;77.10
5588;DHT22;2816;49.778;9.986;2023-06-14T09:47:23;21.80;77.60
5588;DHT22;2816;49.778;9.986;2023-06-14T09:49:50;21.80;77.60
5588;DHT22;2816;49.778;9.986;2023-06-14T09:52:21;22.00;78.10
5588;DHT22;2816;49.778;9.986;2023-06-14T09:54:49;22.00;76.60
5588;DHT22;2816;49.778;9.986;2023-06-14T09:57:20;22.00;77.10
5588;DHT22;2816;49.778;9.986;2023-06-14T09:59:48;22.50;76.90
5588;DHT22;2816;49.778;9.986;2023-06-14T10:02:25;22.60;77.60
5588;DHT22;2816;49.778;9.986;2023-06-14T10:04:56;22.30;75.20
5588;DHT22;2816;49.778;9.986;2023-06-14T10:07:26;22.30;75.60
5588;DHT22;2816;49.778;9.986;2023-06-14T10:09:57;21.80;74.50
5588;DHT22;2816;49.778;9.986;2023-06-14T10:12:25;22.20;75.40
5588;DHT22;2816;49.778;9.986;2023-06-14T10:14:53;22.80;73.60
5588;DHT22;2816;49.778;9.986;2023-06-14T10:17:26;22.80;71.70
5588;DHT22;2816;49.778;9.986;2023-06-14T10:20:06;22.30;72.40
5588;DHT22;2816;49.778;9.986;2023-06-14T10:22:42;22.00;74.40
5588;DHT22;2816;49.778;9.986;2023-06-14T10:25:26;22.10;74.10
5588;DHT22;2816;49.778;9.986;2023-06-14T10:27:56;22.00;74.70
5588;DHT22;2816;49.778;9.986;2023-06-14T10:30:28;22.30;75.00
5588;DHT22;2816;49.778;9.986;2023-06-14T10:33:05;22.40;74.60
5588;DHT22;2816;49.778;9.986;2023-06-14T10:35:33;22.60;73.50
5588;DHT22;2816;49.778;9.986;2023-06-14T10:38:07;22.50;73.30
5588;DHT22;2816;49.778;9.986;2023-06-14T10:40:36;22.60;73.10
5588;DHT22;2816;49.778;9.986;2023-06-14T10:43:21;22.60;73.20
5588;DHT22;2816;49.778;9.986;2023-06-14T10:46:11;22.50;73.40
5588;DHT22;2816;49.778;9.986;2023-06-14T10:48:40;22.80;73.30
5588;DHT22;2816;49.778;9.986;2023-06-14T10:51:16;22.90;71.60
5588;DHT22;2816;49.778;9.986;2023-06-14T10:53:46;22.80;73.60
5588;DHT22;2816;49.778;9.986;2023-06-14T10:56:30;22.70;72.40
5588;DHT22;2816;49.778;9.986;2023-06-14T10:58:58;22.90;72.60
5588;DHT22;2816;49.778;9.986;2023-06-14T11:01:36;22.90;72.00
5588;DHT22;2816;49.778;9.986;2023-06-14T11:04:10;22.60;72.50
5588;DHT22;2816;49.778;9.986;2023-06-14T11:06:46;22.60;71.80
5588;DHT22;2816;49.778;9.986;2023-06-14T11:12:18;23.20;72.60
5588;DHT22;2816;49.778;9.986;2023-06-14T11:14:46;23.50;70.70
5588;DHT22;2816;49.778;9.986;2023-06-14T11:17:14;23.40;70.00
5588;DHT22;2816;49.778;9.986;2023-06-14T11:19:41;23.70;69.00
5588;DHT22;2816;49.778;9.986;2023-06-14T11:22:08;23.60;68.90
5588;DHT22;2816;49.778;9.986;2023-06-14T11:24:35;23.50;68.90
5588;DHT22;2816;49.778;9.986;2023-06-14T11:27:02;23.30;69.70
5588;DHT22;2816;49.778;9.986;2023-06-14T11:29:31;22.90;68.80
5588;DHT22;2816;49.778;9.986;2023-06-14T11:31:58;22.80;69.50
5588;DHT22;2816;49.778;9.986;2023-06-14T11:34:25;22.90;68.90
5588;DHT22;2816;49.778;9.986;2023-06-14T11:36:52;23.10;69.10
5588;DHT22;2816;49.778;9.986;2023-06-14T11:39:24;23.10;68.50
5588;DHT22;2816;49.778;9.986;2023-06-14T11:41:52;23.10;68.80
5588;DHT22;2816;49.778;9.986;2023-06-14T11:44:20;23.10;68.20
5588;DHT22;2816;49.778;9.986;2023-06-14T11:46:49;23.20;68.70
5588;DHT22;2816;49.778;9.986;2023-06-14T11:49:16;23.30;68.10
5588;DHT22;2816;49.778;9.986;2023-06-14T11:51:43;23.30;68.60
5588;DHT22;2816;49.778;9.986;2023-06-14T11:54:10;23.50;68.10
5588;DHT22;2816;49.778;9.986;2023-06-14T11:56:37;23.90;67.90
5588;DHT22;2816;49.778;9.986;2023-06-14T11:59:04;23.70;66.50
5588;DHT22;2816;49.778;9.986;2023-06-14T12:01:35;23.40;66.90
5588;DHT22;2816;49.778;9.986;2023-06-14T12:04:04;23.40;66.90
5588;DHT22;2816;49.778;9.986;2023-06-14T12:06:31;23.50;66.30
5588;DHT22;2816;49.778;9.986;2023-06-14T12:09:03;23.40;65.90
5588;DHT22;2816;49.778;9.986;2023-06-14T12:11:33;23.50;65.80
5588;DHT22;2816;49.778;9.986;2023-06-14T12:14:00;23.70;66.60
5588;DHT22;2816;49.778;9.986;2023-06-14T12:16:31;24.00;65.30
5588;DHT22;2816;49.778;9.986;2023-06-14T12:19:07;24.00;66.30
5588;DHT22;2816;49.778;9.986;2023-06-14T12:21:36;23.90;66.00
5588;DHT22;2816;49.778;9.986;2023-06-14T12:24:05;23.90;64.30
5588;DHT22;2816;49.778;9.986;2023-06-14T12:26:32;23.90;64.70
5588;DHT22;2816;49.778;9.986;2023-06-14T12:28:59;23.70;64.50
5588;DHT22;2816;49.778;9.986;2023-06-14T12:31:26;23.70;65.30
5588;DHT22;2816;49.778;9.986;2023-06-14T12:33:54;23.50;64.80
5588;DHT22;2816;49.778;9.986;2023-06-14T12:36:23;23.50;65.90
5588;DHT22;2816;49.778;9.986;2023-06-14T12:38:50;24.00;65.10
5588;DHT22;2816;49.778;9.986;2023-06-14T12:41:19;24.00;64.10
5588;DHT22;2816;49.778;9.986;2023-06-14T12:43:47;24.10;63.70
5588;DHT22;2816;49.778;9.986;2023-06-14T12:46:14;24.10;65.20
5588;DHT22;2816;49.778;9.986;2023-06-14T12:48:40;24.40;65.10
5588;DHT22;2816;49.778;9.986;2023-06-14T12:51:07;24.20;63.40
5588;DHT22;2816;49.778;9.986;2023-06-14T12:53:36;24.50;63.30
5588;DHT22;2816;49.778;9.986;2023-06-14T12:56:03;24.70;62.70
5588;DHT22;2816;49.778;9.986;2023-06-14T12:58:30;25.00;62.80
5588;DHT22;2816;49.778;9.986;2023-06-14T13:00:57;25.40;62.90
5588;DHT22;2816;49.778;9.986;2023-06-14T13:03:24;25.10;60.60
5588;DHT22;2816;49.778;9.986;2023-06-14T13:05:51;25.20;62.70
5588;DHT22;2816;49.778;9.986;2023-06-14T13:08:17;25.60;61.90
5588;DHT22;2816;49.778;9.986;2023-06-14T13:10:46;25.60;62.30
5588;DHT22;2816;49.778;9.986;2023-06-14T13:13:13;25.40;61.20
5588;DHT22;2816;49.778;9.986;2023-06-14T13:15:40;25.10;61.00
5588;DHT22;2816;49.778;9.986;2023-06-14T13:18:07;25.10;61.30
5588;DHT22;2816;49.778;9.986;2023-06-14T13:20:34;25.10;61.80
5588;DHT22;2816;49.778;9.986;2023-06-14T13:23:01;25.40;61.00
5588;DHT22;2816;49.778;9.986;2023-06-14T13:25:29;25.50;60.80
5588;DHT22;2816;49.778;9.986;2023-06-14T13:27:58;25.80;59.80
5588;DHT22;2816;49.778;9.986;2023-06-14T13:30:25;25.70;59.70
5588;DHT22;2816;49.778;9.986;2023-06-14T13:32:51;25.60;59.40
5588;DHT22;2816;49.778;9.986;2023-06-14T13:35:18;25.50;61.10
5588;DHT22;2816;49.778;9.986;2023-06-14T13:37:45;25.80;61.70
5588;DHT22;2816;49.778;9.986;2023-06-14T13:40:13;26.00;61.40
5588;DHT22;2816;49.778;9.986;2023-06-14T13:42:40;26.00;59.80
5588;DHT22;2816;49.778;9.986;2023-06-14T13:45:11;25.60;59.90
5588;DHT22;2816;49.778;9.986;2023-06-14T13:47:38;25.70;59.60
5588;DHT22;2816;49.778;9.986;2023-06-14T13:50:06;26.00;59.20
5588;DHT22;2816;49.778;9.986;2023-06-14T13:52:33;26.20;59.80
5588;DHT22;2816;49.778;9.986;2023-06-14T13:55:01;26.00;58.80
5588;DHT22;2816;49.778;9.986;2023-06-14T13:57:28;26.00;57.30
5588;DHT22;2816;49.778;9.986;2023-06-14T13:59:55;26.00;58.10
5588;DHT22;2816;49.778;9.986;2023-06-14T14:02:28;25.90;57.80
5588;DHT22;2816;49.778;9.986;2023-06-14T14:04:56;26.00;57.80
5588;DHT22;2816;49.778;9.986;2023-06-14T14:07:23;26.00;57.40
5588;DHT22;2816;49.778;9.986;2023-06-14T14:09:50;25.70;57.90
5588;DHT22;2816;49.778;9.986;2023-06-14T14:12:17;25.50;58.40
5588;DHT22;2816;49.778;9.986;2023-06-14T14:14:43;25.50;58.50
5588;DHT22;2816;49.778;9.986;2023-06-14T14:17:12;25.50;58.80
5588;DHT22;2816;49.778;9.986;2023-06-14T14:19:40;25.50;57.90
5588;DHT22;2816;49.778;9.986;2023-06-14T14:22:07;25.30;58.30
5588;DHT22;2816;49.778;9.986;2023-06-14T14:24:34;25.60;58.40
5588;DHT22;2816;49.778;9.986;2023-06-14T14:27:01;25.80;58.20
5588;DHT22;2816;49.778;9.986;2023-06-14T14:29:28;25.80;58.00
5588;DHT22;2816;49.778;9.986;2023-06-14T14:31:55;25.80;57.50
5588;DHT22;2816;49.778;9.986;2023-06-14T14:34:23;25.90;58.60
5588;DHT22;2816;49.778;9.986;2023-06-14T14:36:52;26.00;57.50
5588;DHT22;2816;49.778;9.986;2023-06-14T14:39:19;26.00;57.90
5588;DHT22;2816;49.778;9.986;2023-06-14T14:41:46;26.10;57.70
5588;DHT22;2816;49.778;9.986;2023-06-14T14:44:13;26.10;58.20
5588;DHT22;2816;49.778;9.986;2023-06-14T14:46:40;25.90;57.70
5588;DHT22;2816;49.778;9.986;2023-06-14T14:49:07;25.50;57.90
5588;DHT22;2816;49.778;9.986;2023-06-14T14:51:34;25.40;58.20
5588;DHT22;2816;49.778;9.986;2023-06-14T14:54:03;25.30;58.60
5588;DHT22;2816;49.778;9.986;2023-06-14T14:56:30;25.30;58.10
5588;DHT22;2816;49.778;9.986;2023-06-14T14:58:57;25.20;58.00
5588;DHT22;2816;49.778;9.986;2023-06-14T15:01:24;25.10;57.90
5588;DHT22;2816;49.778;9.986;2023-06-14T15:03:51;25.10;57.90
5588;DHT22;2816;49.778;9.986;2023-06-14T15:06:18;25.20;59.20
5588;DHT22;2816;49.778;9.986;2023-06-14T15:08:45;25.50;57.40
5588;DHT22;2816;49.778;9.986;2023-06-14T15:11:13;25.60;57.20
5588;DHT22;2816;49.778;9.986;2023-06-14T15:13:40;25.50;57.20
5588;DHT22;2816;49.778;9.986;2023-06-14T15:16:07;25.50;56.50
5588;DHT22;2816;49.778;9.986;2023-06-14T15:18:34;25.40;57.20
5588;DHT22;2816;49.778;9.986;2023-06-14T15:21:01;25.50;57.40
5588;DHT22;2816;49.778;9.986;2023-06-14T15:23:28;25.70;58.10
5588;DHT22;2816;49.778;9.986;2023-06-14T15:25:55;25.90;57.00
5588;DHT22;2816;49.778;9.986;2023-06-14T15:28:23;26.00;57.60
5588;DHT22;2816;49.778;9.986;2023-06-14T15:30:53;26.20;56.40
5588;DHT22;2816;49.778;9.986;2023-06-14T15:33:20;26.00;57.40
5588;DHT22;2816;49.778;9.986;2023-06-14T15:35:47;26.20;58.50
5588;DHT22;2816;49.778;9.986;2023-06-14T15:38:14;25.80;58.00
5588;DHT22;2816;49.778;9.986;2023-06-14T15:40:41;25.50;58.00
5588;DHT22;2816;49.778;9.986;2023-06-14T15:43:08;25.50;58.80
5588;DHT22;2816;49.778;9.986;2023-06-14T15:45:36;25.30;58.30
5588;DHT22;2816;49.778;9.986;2023-06-14T15:48:05;25.20;58.10
5588;DHT22;2816;49.778;9.986;2023-06-14T15:50:33;24.90;58.60
5588;DHT22;2816;49.778;9.986;2023-06-14T15:53:00;24.70;58.70
5588;DHT22;2816;49.778;9.986;2023-06-14T15:55:27;24.60;58.80
5588;DHT22;2816;49.778;9.986;2023-06-14T15:57:54;24.60;58.50
5588;DHT22;2816;49.778;9.986;2023-06-14T16:00:22;24.50;58.90
5588;DHT22;2816;49.778;9.986;2023-06-14T16:02:52;24.50;58.20
5588;DHT22;2816;49.778;9.986;2023-06-14T16:05:19;24.40;58.30
5588;DHT22;2816;49.778;9.986;2023-06-14T16:07:46;24.50;58.90
5588;DHT22;2816;49.778;9.986;2023-06-14T16:10:13;24.50;58.40
5588;DHT22;2816;49.778;9.986;2023-06-14T16:12:40;24.60;58.00